Climax, CO

12:47 AM MST on December 03, 2016 (GMT -0700)
Northstar Village | | Change Station

Elev 11306 ft 39.38 °N, 106.07 °W | Updated 2 minutes ago

Scattered Clouds
Scattered Clouds
10.2 °F
Feels Like 10 °F
N
2.0
Wind Variable Wind from NNE
Gusts 8.0 mph

Today
High -- | Low -- °F
--% Chance of Precip.
Yesterday
High -- | Low -- °F
Precip. -- in
Pressure 30.05 in
Visibility 10.0 miles
Clouds Few 700 ft
Scattered Clouds 2300 ft
Windchill 10 °F
Dew Point 5 °F
Humidity 80%
Rainfall 0.00 in
Snow Depth Not available.
7:08 AM 4:41 PM
Waxing Crescent, 13% visible
SPECI KLXV 030703Z AUTO 06004KT 10SM FEW007 SCT023 M17/M19 A3005 RMK AO2 T11671189
Pressure 30.05 in
Visibility 10.0 miles
Clouds Few 700 ft
Scattered Clouds 2300 ft
Windchill 10 °F
Dew Point 5 °F
Humidity 80%
Rainfall 0.00 in
Snow Depth Not available.
7:08 AM 4:41 PM
Waxing Crescent, 13% visible
SPECI KLXV 030703Z AUTO 06004KT 10SM FEW007 SCT023 M17/M19 A3005 RMK AO2 T11671189

10-Day Weather Forecast

Almanac

Astronomy

Dec. 03, 2016 Rise Set
Actual Time
Civil Twilight
Nautical Twilight
Astronomical Twilight
Moon
Length of Visible Light
Length of Day
Tomorrow will be .
, % of the Moon is Illuminated

Today's Extremes

State Highs State Lows

Community

WunderPhotos

Upload Photos

1,955,427 photos uploaded!

WunderBlog® & News

Nearby

Air Quality

  Air Quality AQ Index Pollutant
Not available.

Snow Depth

Station Depth Elevation

Earthquake Activity

City Distance Mag. Time & Date
Minimum magnitude displayed is 2.5.

Coastal Water Temperatures

Place Temperature

Stations

Nearby Weather Stations

Station Location Temp. Windchill Dew Point Humidity Wind Precip. Elev Updated Type
                   

Watches & Warnings

There are currently no watches in effect.